Time;durP1;ratioP1;P1;durP2;ratioP2;P2;SDS_P1;SDS_P2;PMS_P1;PMS_P2;Temp;Humidity;BMP_temperature;BMP_pressure;BME280_temperature;BME280_humidity;BME280_pressure;Samples;Min_cycle;Max_cycle;Signal;HPM_P1;HPM_P2
2022/02/28 00:04:52;;;;;;;43.50;18.70;;;;;;;-2.76;76.18;101715.15;214833;1274;140766;-75
2022/02/28 00:09:57;;;;;;;33.00;17.90;;;;;;;-2.81;76.12;101713.46;213172;1274;140843;-73
2022/02/28 00:15:04;;;;;;;34.80;17.10;;;;;;;-2.93;76.33;101708.64;214633;1274;140459;-69
2022/02/28 00:20:11;;;;;;;32.20;15.40;;;;;;;-3.02;76.13;101702.46;213880;1274;140963;-72
2022/02/28 00:25:16;;;;;;;35.30;16.40;;;;;;;-3.08;76.47;101703.17;214013;1274;140562;-74
2022/02/28 00:30:20;;;;;;;33.20;16.20;;;;;;;-3.14;76.53;101697.33;214799;1274;141074;-73
2022/02/28 00:35:24;;;;;;;34.30;14.00;;;;;;;-3.20;76.63;101695.95;213201;1274;140605;-72
2022/02/28 00:40:29;;;;;;;36.80;14.30;;;;;;;-3.23;76.70;101689.20;213549;1274;140492;-68
2022/02/28 00:45:33;;;;;;;33.00;17.90;;;;;;;-3.28;76.77;101691.60;213705;1274;141791;-71
2022/02/28 00:50:37;;;;;;;29.60;16.10;;;;;;;-3.31;77.08;101698.58;214759;1274;141382;-71
2022/02/28 00:55:42;;;;;;;30.10;13.60;;;;;;;-3.29;77.03;101701.97;214333;1273;141748;-72
2022/02/28 01:00:46;;;;;;;27.80;13.60;;;;;;;-3.26;76.88;101692.20;215291;1274;141690;-73
2022/02/28 01:05:51;;;;;;;36.70;14.60;;;;;;;-3.25;76.85;101686.58;215677;1274;140449;-70
2022/02/28 01:10:55;;;;;;;34.00;15.70;;;;;;;-3.26;77.23;101680.18;215015;1274;141164;-72
2022/02/28 01:15:59;;;;;;;30.50;15.30;;;;;;;-3.28;76.96;101679.81;215611;1274;140375;-73
2022/02/28 01:21:03;;;;;;;24.00;12.90;;;;;;;-3.31;77.10;101681.91;215880;1274;141276;-74
2022/02/28 01:26:07;;;;;;;29.70;15.90;;;;;;;-3.37;76.84;101673.40;216007;1274;141244;-72
2022/02/28 01:31:12;;;;;;;21.20;13.20;;;;;;;-3.39;76.98;101677.77;214975;1274;142350;-70
2022/02/28 01:36:17;;;;;;;30.20;12.70;;;;;;;-3.40;76.95;101679.19;215061;1274;140753;-76
2022/02/28 01:41:21;;;;;;;33.30;14.40;;;;;;;-3.43;77.17;101678.36;214887;1274;139800;-72
2022/02/28 01:46:24;;;;;;;28.50;12.30;;;;;;;-3.48;77.18;101676.55;214932;1274;140264;-74
2022/02/28 01:51:29;;;;;;;23.80;12.30;;;;;;;-3.55;77.22;101684.48;214711;1274;140568;-73
2022/02/28 01:56:35;;;;;;;19.80;11.50;;;;;;;-3.58;77.32;101686.90;214506;1274;140563;-71
2022/02/28 02:01:40;;;;;;;22.70;11.40;;;;;;;-3.60;77.36;101685.65;213882;1274;141472;-72
2022/02/28 02:06:46;;;;;;;23.70;12.10;;;;;;;-3.62;77.34;101679.00;214294;1274;141319;-71
2022/02/28 02:11:51;;;;;;;22.50;12.10;;;;;;;-3.64;77.44;101666.59;213575;1274;141272;-66
2022/02/28 02:16:55;;;;;;;21.30;10.50;;;;;;;-3.63;77.41;101673.66;213831;1274;141328;-71
2022/02/28 02:22:00;;;;;;;21.30;10.30;;;;;;;-3.65;77.51;101668.42;214319;1274;140714;-69
2022/02/28 02:27:05;;;;;;;20.90;8.60;;;;;;;-3.73;77.66;101668.25;214545;1274;139617;-72
2022/02/28 02:32:13;;;;;;;24.00;11.40;;;;;;;-3.79;77.72;101673.50;213536;1274;333194;-72
2022/02/28 02:37:18;;;;;;;;;;;;;;;-3.80;77.85;101674.95;214884;1274;141413;-73
2022/02/28 02:42:23;;;;;;;16.00;8.30;;;;;;;-3.79;77.87;101679.05;214435;1276;128127;-68
2022/02/28 02:47:27;;;;;;;19.00;9.00;;;;;;;-3.74;78.02;101680.50;213179;1276;140923;-68
2022/02/28 02:52:31;;;;;;;14.90;8.50;;;;;;;-3.74;77.96;101683.44;215072;1276;141551;-73
2022/02/28 02:57:35;;;;;;;15.20;8.50;;;;;;;-3.79;77.88;101679.70;213650;1274;139670;-71
2022/02/28 03:02:40;;;;;;;17.60;8.70;;;;;;;-3.88;77.80;101684.77;214089;1274;140209;-67
2022/02/28 03:07:44;;;;;;;17.40;9.80;;;;;;;-3.97;77.65;101689.02;214470;1275;139924;-72
2022/02/28 03:12:48;;;;;;;17.00;8.90;;;;;;;-4.03;77.75;101691.13;214841;1274;140996;-71
2022/02/28 03:17:52;;;;;;;15.60;8.50;;;;;;;-4.05;77.85;101688.13;215752;1274;141369;-71
2022/02/28 03:22:56;;;;;;;17.90;9.60;;;;;;;-4.04;77.64;101680.08;215774;1274;140576;-70
2022/02/28 03:28:01;;;;;;;15.10;7.60;;;;;;;-4.01;77.83;101676.95;215856;1274;140545;-71
2022/02/28 03:33:06;;;;;;;14.90;8.80;;;;;;;-3.96;78.06;101675.53;214151;1274;141121;-67
2022/02/28 03:38:11;;;;;;;21.00;7.50;;;;;;;-3.90;77.96;101681.14;215771;1274;142213;-72
2022/02/28 03:43:15;;;;;;;20.50;7.90;;;;;;;-3.94;77.71;101682.73;214798;1274;141710;-70
2022/02/28 03:48:19;;;;;;;17.20;7.80;;;;;;;-4.02;77.71;101688.80;213413;1274;141146;-69
2022/02/28 03:53:23;;;;;;;16.30;7.40;;;;;;;-4.10;77.71;101694.80;214725;1274;141367;-70
2022/02/28 03:58:27;;;;;;;12.00;6.90;;;;;;;-4.13;78.02;101688.95;214460;1274;140880;-69
2022/02/28 04:03:31;;;;;;;11.20;8.00;;;;;;;-4.17;77.98;101687.30;214250;1273;141345;-70
2022/02/28 04:08:36;;;;;;;14.00;7.40;;;;;;;-4.16;78.17;101686.20;215064;1274;140874;-69
2022/02/28 04:13:41;;;;;;;13.40;7.80;;;;;;;-4.17;78.19;101688.67;213980;1274;140745;-70
2022/02/28 04:18:46;;;;;;;17.50;8.40;;;;;;;-4.16;78.22;101685.65;213726;1274;141278;-68
2022/02/28 04:23:51;;;;;;;17.50;9.50;;;;;;;-4.10;78.50;101689.64;213490;1275;141549;-72
2022/02/28 04:28:56;;;;;;;16.70;8.20;;;;;;;-4.05;78.61;101691.45;213550;1274;142703;-67
2022/02/28 04:34:01;;;;;;;15.10;7.70;;;;;;;-4.10;78.37;101692.73;214542;1274;141018;-71
2022/02/28 04:39:06;;;;;;;15.70;7.10;;;;;;;-4.11;78.57;101692.98;213468;1274;142889;-70
2022/02/28 04:44:10;;;;;;;16.90;7.30;;;;;;;-4.13;78.42;101689.61;215328;1274;140757;-71
2022/02/28 04:49:14;;;;;;;14.60;8.10;;;;;;;-4.13;78.57;101693.60;214296;1274;140179;-69
2022/02/28 04:54:19;;;;;;;10.00;7.60;;;;;;;-4.17;78.37;101690.76;214228;1274;140922;-69
2022/02/28 04:59:24;;;;;;;14.60;6.30;;;;;;;-4.22;78.41;101688.81;214001;1274;141180;-72
2022/02/28 05:04:29;;;;;;;14.10;7.40;;;;;;;-4.26;78.58;101692.14;215135;1274;152585;-70
2022/02/28 05:09:37;;;;;;;14.20;6.30;;;;;;;-4.28;78.39;101695.90;213638;1274;142125;-72
2022/02/28 05:14:42;;;;;;;13.30;6.90;;;;;;;-4.33;78.45;101695.89;213837;1274;142628;-75
2022/02/28 05:19:47;;;;;;;12.40;8.00;;;;;;;-4.35;78.43;101694.81;214776;1274;141758;-69
2022/02/28 05:24:51;;;;;;;16.20;6.90;;;;;;;-4.37;78.51;101698.04;215753;1274;140237;-72
2022/02/28 05:29:55;;;;;;;15.40;7.00;;;;;;;-4.32;78.65;101706.75;216008;1274;140707;-74
2022/02/28 05:34:59;;;;;;;13.50;7.40;;;;;;;-4.28;78.55;101707.40;215402;1274;140541;-73
2022/02/28 05:40:05;;;;;;;13.60;8.40;;;;;;;-4.27;78.51;101710.78;214392;1274;142781;-71
2022/02/28 05:45:09;;;;;;;20.60;8.80;;;;;;;-4.24;78.45;101713.90;215616;1275;141341;-66
2022/02/28 05:50:14;;;;;;;23.60;8.90;;;;;;;-4.17;78.66;101714.52;215498;1276;142840;-71
2022/02/28 05:55:18;;;;;;;14.10;9.50;;;;;;;-4.11;78.77;101717.31;215149;1275;140747;-72
2022/02/28 06:00:28;;;;;;;11.40;6.40;;;;;;;-4.00;78.88;101726.17;214633;1274;141824;-69
2022/02/28 06:05:32;;;;;;;13.30;7.10;;;;;;;-3.87;78.86;101734.08;214557;1274;152588;-72
2022/02/28 06:10:36;;;;;;;13.20;7.70;;;;;;;-3.75;78.93;101742.22;215045;1274;142270;-73
2022/02/28 06:15:41;;;;;;;13.10;7.90;;;;;;;-3.63;78.93;101743.70;214594;1274;141152;-72
2022/02/28 06:20:45;;;;;;;17.10;8.20;;;;;;;-3.55;78.77;101745.66;214020;1276;141809;-71
2022/02/28 06:25:50;;;;;;;14.60;8.00;;;;;;;-3.49;78.71;101755.86;214010;1276;140684;-71
2022/02/28 06:30:57;;;;;;;15.40;9.40;;;;;;;-3.43;78.75;101756.37;213426;1276;142572;-71
2022/02/28 06:36:02;;;;;;;15.30;8.00;;;;;;;-3.38;78.87;101762.86;212883;1277;141576;-72
2022/02/28 06:41:08;;;;;;;19.70;9.00;;;;;;;-3.36;78.79;101764.27;214227;1276;141120;-71
2022/02/28 06:46:14;;;;;;;14.90;8.20;;;;;;;-3.31;78.73;101767.98;213970;1277;141769;-70
2022/02/28 06:51:18;;;;;;;21.80;9.00;;;;;;;-3.26;78.81;101769.21;214061;1276;140599;-70
2022/02/28 06:56:22;;;;;;;19.50;8.90;;;;;;;-3.20;78.50;101772.13;213502;1276;140690;-71
2022/02/28 07:01:26;;;;;;;17.00;9.90;;;;;;;-3.12;78.69;101779.80;212902;1276;140676;-72
2022/02/28 07:06:31;;;;;;;21.40;10.80;;;;;;;-3.04;78.52;101785.17;214026;1276;141592;-67
2022/02/28 07:11:36;;;;;;;23.00;12.90;;;;;;;-2.91;78.48;101789.63;213873;1276;141778;-71
2022/02/28 07:16:40;;;;;;;18.00;11.50;;;;;;;-2.61;78.33;101795.15;214400;1276;140558;-71
2022/02/28 07:21:45;;;;;;;24.30;13.90;;;;;;;-1.82;78.31;101789.47;213310;1275;140384;-71
2022/02/28 07:26:49;;;;;;;23.40;11.80;;;;;;;-0.37;77.82;101796.89;215787;1274;140710;-72
2022/02/28 07:31:52;;;;;;;19.30;10.80;;;;;;;1.10;76.57;101798.01;215359;1272;139823;-72
2022/02/28 07:36:57;;;;;;;16.60;9.10;;;;;;;2.43;75.35;101798.13;215673;1275;140316;-75
2022/02/28 07:42:01;;;;;;;26.10;13.80;;;;;;;3.26;73.86;101797.88;215226;1274;140757;-72
2022/02/28 07:47:07;;;;;;;21.10;11.00;;;;;;;3.68;72.64;101801.83;216138;1274;141090;-75
2022/02/28 07:52:12;;;;;;;23.90;13.10;;;;;;;3.74;71.64;101804.76;216121;1274;142002;-73
2022/02/28 07:57:16;;;;;;;21.90;12.50;;;;;;;3.55;70.74;101811.08;214363;1274;139852;-73
2022/02/28 08:02:21;;;;;;;20.00;11.70;;;;;;;3.30;70.57;101813.80;214899;1274;140257;-72
2022/02/28 08:07:26;;;;;;;18.50;13.00;;;;;;;3.09;70.00;101812.54;213313;1274;140284;-72
2022/02/28 08:12:31;;;;;;;16.10;11.20;;;;;;;2.80;70.02;101816.84;213997;1274;140438;-71
2022/02/28 08:17:35;;;;;;;14.30;7.90;;;;;;;2.55;70.10;101825.58;214896;1275;142139;-71
2022/02/28 08:22:39;;;;;;;18.50;9.00;;;;;;;2.37;69.78;101835.50;213993;1276;139974;-70
2022/02/28 08:27:43;;;;;;;19.00;11.10;;;;;;;2.20;69.86;101838.72;215166;1274;140692;-72
2022/02/28 08:32:49;;;;;;;13.50;8.50;;;;;;;2.06;69.88;101845.70;214330;1274;139690;-73
2022/02/28 08:37:55;;;;;;;17.30;9.50;;;;;;;1.95;69.27;101843.48;214162;1274;142216;-73
2022/02/28 08:43:01;;;;;;;29.90;15.10;;;;;;;1.82;69.02;101842.25;213576;1276;139581;-72
2022/02/28 08:48:06;;;;;;;18.00;7.30;;;;;;;1.70;68.59;101845.91;213752;1274;140163;-71
2022/02/28 08:53:10;;;;;;;13.50;8.00;;;;;;;1.56;68.63;101848.27;213837;1275;140270;-72
2022/02/28 08:58:15;;;;;;;9.50;6.30;;;;;;;1.49;67.97;101847.63;213976;1271;141210;-73
2022/02/28 09:03:18;;;;;;;10.60;6.20;;;;;;;1.36;67.60;101857.63;213840;1276;143058;-72
2022/02/28 09:08:23;;;;;;;11.90;6.30;;;;;;;1.26;67.32;101859.25;214822;1275;233200;-72
2022/02/28 09:13:27;;;;;;;16.00;7.00;;;;;;;1.23;67.15;101861.44;214470;1274;141269;-72
2022/02/28 09:18:33;;;;;;;14.60;6.80;;;;;;;1.32;67.44;101866.14;213391;1276;141782;-71
2022/02/28 09:23:37;;;;;;;9.60;5.70;;;;;;;1.33;66.86;101862.09;213235;1274;141689;-71
2022/02/28 09:28:41;;;;;;;9.40;5.30;;;;;;;1.33;66.77;101861.69;214343;1274;140170;-72
2022/02/28 09:33:47;;;;;;;7.40;5.30;;;;;;;1.45;66.96;101861.97;214285;1274;141631;-72
2022/02/28 09:38:51;;;;;;;10.90;5.00;;;;;;;1.54;66.55;101865.98;215934;1275;141946;-74
2022/02/28 09:44:17;;;;;;;9.50;4.60;;;;;;;1.56;66.71;101869.08;216079;1275;141029;-73
2022/02/28 09:49:23;;;;;;;7.00;3.90;;;;;;;1.67;66.26;101862.10;215473;1274;141378;-73
2022/02/28 09:54:27;;;;;;;7.50;4.70;;;;;;;1.75;65.66;101856.17;214710;1274;140187;-73
2022/02/28 09:59:32;;;;;;;10.40;5.90;;;;;;;1.84;65.51;101858.42;214739;1274;140956;-68
2022/02/28 10:04:39;;;;;;;17.90;7.80;;;;;;;1.96;65.69;101861.11;214814;1274;141334;-73
2022/02/28 10:09:43;;;;;;;14.00;6.70;;;;;;;2.16;65.55;101856.94;214773;1274;140419;-72
2022/02/28 10:14:48;;;;;;;8.70;5.30;;;;;;;2.34;65.17;101855.27;215191;1274;139936;-73
2022/02/28 10:19:58;;;;;;;10.10;5.60;;;;;;;2.44;64.64;101867.23;214380;1274;151063;-72
2022/02/28 10:25:02;;;;;;;8.50;4.80;;;;;;;2.34;64.91;101862.11;214324;1274;141168;-74
2022/02/28 10:30:27;;;;;;;8.70;4.00;;;;;;;2.53;65.01;101865.59;214378;1274;140902;-73
2022/02/28 10:36:10;;;;;;;7.40;5.50;;;;;;;2.74;64.61;101863.58;214264;1274;141465;-74
2022/02/28 10:41:21;;;;;;;7.20;4.20;;;;;;;2.78;64.12;101866.77;214172;1274;140158;-72
2022/02/28 10:46:33;;;;;;;8.20;5.00;;;;;;;2.75;64.07;101866.69;213409;1274;140547;-72
2022/02/28 10:51:47;;;;;;;11.90;5.10;;;;;;;2.66;63.94;101869.20;213384;1274;141455;-72
2022/02/28 10:57:20;;;;;;;9.90;5.50;;;;;;;2.85;63.87;101865.98;214369;1276;140875;-73
2022/02/28 11:02:28;;;;;;;9.30;3.90;;;;;;;3.03;63.31;101857.92;213100;1277;143661;-71
2022/02/28 11:07:49;;;;;;;14.90;5.10;;;;;;;3.29;63.57;101853.10;213991;1274;140890;-71
2022/02/28 11:12:59;;;;;;;4.10;2.90;;;;;;;3.48;63.25;101859.39;213409;1274;140736;-72
2022/02/28 11:18:04;;;;;;;6.00;4.50;;;;;;;3.59;62.64;101856.98;213591;1274;141894;-73
2022/02/28 11:23:09;;;;;;;6.70;5.80;;;;;;;3.94;62.65;101856.77;214556;1276;140728;-73
2022/02/28 11:28:15;;;;;;;5.10;3.10;;;;;;;4.24;61.98;101860.67;213755;1274;162517;-71
2022/02/28 11:33:24;;;;;;;4.80;2.50;;;;;;;4.37;59.88;101856.61;214337;1275;140403;-69
2022/02/28 11:38:29;;;;;;;6.70;3.50;;;;;;;3.94;57.86;101857.98;214512;1274;140234;-71
2022/02/28 11:43:40;;;;;;;7.60;2.40;;;;;;;3.68;57.84;101861.73;214279;1276;141202;-73
2022/02/28 11:48:57;;;;;;;7.70;2.90;;;;;;;3.73;57.27;101859.02;214974;1275;141033;-72
2022/02/28 11:54:25;;;;;;;6.90;3.60;;;;;;;3.87;58.12;101860.75;216121;1274;140831;-74
2022/02/28 11:59:32;;;;;;;;;;;;;;;3.73;57.88;101854.75;215722;1274;139633;-74
2022/02/28 12:04:42;;;;;;;8.10;3.60;;;;;;;3.62;58.39;101855.23;216008;1274;126612;-74
2022/02/28 12:09:47;;;;;;;5.20;4.10;;;;;;;3.83;58.11;101860.63;215791;1274;142040;-75
2022/02/28 12:14:55;;;;;;;4.90;2.90;;;;;;;3.84;57.70;101861.89;214145;1274;141459;-73
2022/02/28 12:20:17;;;;;;;5.00;3.00;;;;;;;3.82;57.38;101859.97;215416;1274;140635;-73
2022/02/28 12:25:44;;;;;;;3.50;3.20;;;;;;;3.79;57.33;101865.66;215081;1274;139895;-73
2022/02/28 12:30:57;;;;;;;9.40;4.30;;;;;;;3.91;57.21;101869.73;213223;1274;141253;-73
2022/02/28 12:36:11;;;;;;;5.10;2.70;;;;;;;3.82;57.26;101874.75;213676;1274;140537;-73
2022/02/28 12:41:19;;;;;;;7.30;2.90;;;;;;;3.67;56.66;101878.23;214340;1274;141486;-72
2022/02/28 12:46:30;;;;;;;5.00;3.20;;;;;;;3.35;56.54;101874.43;213672;1274;141163;-73
2022/02/28 12:51:37;;;;;;;6.20;2.70;;;;;;;3.34;56.76;101873.10;214234;1275;140072;-73
2022/02/28 12:56:47;;;;;;;4.70;2.40;;;;;;;3.64;56.81;101882.81;213670;1274;140207;-72
2022/02/28 13:01:58;;;;;;;7.50;2.80;;;;;;;3.82;56.64;101874.71;214430;1274;139180;-74
2022/02/28 13:07:14;;;;;;;5.50;2.80;;;;;;;3.96;56.10;101870.48;213897;1274;138981;-69
2022/02/28 13:12:26;;;;;;;14.80;8.00;;;;;;;4.15;56.02;101872.61;214040;1274;140923;-73
2022/02/28 13:17:31;;;;;;;4.20;3.30;;;;;;;4.26;55.70;101873.30;214302;1274;139826;-73
2022/02/28 13:22:36;;;;;;;6.30;4.00;;;;;;;4.20;55.30;101871.97;213980;1275;140108;-72
2022/02/28 13:27:42;;;;;;;5.90;5.10;;;;;;;4.12;54.91;101875.73;213253;1274;140956;-73
2022/02/28 13:32:46;;;;;;;6.70;3.50;;;;;;;3.90;55.14;101876.43;214291;1274;140933;-73
2022/02/28 13:37:55;;;;;;;3.60;2.70;;;;;;;3.63;55.16;101877.11;214519;1274;139638;-72
2022/02/28 13:43:00;;;;;;;;;;;;;;;3.46;55.07;101872.73;214760;1274;139408;-73
2022/02/28 13:48:16;;;;;;;3.50;2.90;;;;;;;3.48;54.93;101870.56;215816;1274;126385;-73
2022/02/28 13:53:21;;;;;;;2.90;2.10;;;;;;;3.66;54.36;101876.02;214298;1274;140705;-73
2022/02/28 13:58:28;;;;;;;4.20;2.60;;;;;;;3.71;53.81;101879.05;215149;1274;139901;-73
2022/02/28 14:03:33;;;;;;;6.10;2.30;;;;;;;3.79;54.29;101871.99;214787;1274;141120;-75
2022/02/28 14:08:38;;;;;;;6.30;3.70;;;;;;;3.87;53.71;101873.27;216092;1274;140892;-72
2022/02/28 14:13:43;;;;;;;6.10;4.90;;;;;;;3.90;53.71;101872.05;215807;1273;139298;-72
2022/02/28 14:19:00;;;;;;;4.30;2.70;;;;;;;3.91;53.14;101870.73;214459;1274;139695;-75
2022/02/28 14:24:08;;;;;;;5.10;2.90;;;;;;;3.91;53.04;101873.23;215447;1274;139648;-74
2022/02/28 14:29:17;;;;;;;6.70;3.70;;;;;;;3.86;53.05;101875.99;212858;1274;787843;-73
2022/02/28 14:34:23;;;;;;;5.80;3.70;;;;;;;3.80;53.26;101875.83;214267;1274;139727;-75
2022/02/28 14:39:27;;;;;;;5.60;3.80;;;;;;;3.73;52.99;101878.39;214732;1274;142879;-74
2022/02/28 14:44:31;;;;;;;3.10;2.70;;;;;;;3.67;52.93;101881.84;214611;1274;139795;-73
2022/02/28 14:49:36;;;;;;;6.70;4.20;;;;;;;3.59;52.62;101880.67;213808;1274;222761;-74
2022/02/28 14:54:40;;;;;;;4.50;3.60;;;;;;;3.51;52.86;101885.31;214475;1274;140036;-73
2022/02/28 14:59:46;;;;;;;4.90;2.80;;;;;;;3.44;52.72;101883.98;214373;1273;139742;-76
2022/02/28 15:04:50;;;;;;;12.80;6.30;;;;;;;3.36;52.54;101882.05;213678;1274;139751;-71
2022/02/28 15:09:54;;;;;;;4.10;3.10;;;;;;;3.22;52.49;101881.92;215181;1274;142008;-73
2022/02/28 15:14:58;;;;;;;12.70;4.50;;;;;;;3.14;53.01;101883.31;213408;1274;140618;-70
2022/02/28 15:20:05;;;;;;;17.00;7.70;;;;;;;3.05;52.85;101880.58;214580;1274;139761;-73
2022/02/28 15:25:09;;;;;;;26.40;10.60;;;;;;;2.99;52.74;101884.27;214019;1274;139929;-73
2022/02/28 15:30:14;;;;;;;7.70;4.00;;;;;;;2.91;52.76;101887.20;213504;1274;140514;-68
2022/02/28 15:35:18;;;;;;;7.70;3.90;;;;;;;2.78;52.43;101888.02;214683;1274;139960;-74
2022/02/28 15:40:22;;;;;;;7.40;4.30;;;;;;;2.63;52.85;101884.88;215109;1274;142159;-74
2022/02/28 15:45:26;;;;;;;6.90;5.00;;;;;;;2.51;53.06;101887.85;213183;1274;139838;-74
2022/02/28 15:50:33;;;;;;;10.60;6.10;;;;;;;2.39;53.08;101888.33;214920;1274;140277;-72
2022/02/28 15:55:41;;;;;;;7.90;4.20;;;;;;;2.28;53.33;101888.55;214069;1274;140320;-71
2022/02/28 16:00:47;;;;;;;7.00;4.80;;;;;;;2.14;53.54;101888.84;215257;1274;140828;-73
2022/02/28 16:05:52;;;;;;;9.50;5.10;;;;;;;1.99;54.55;101883.11;215997;1274;140909;-69
2022/02/28 16:10:57;;;;;;;23.30;10.40;;;;;;;1.82;54.74;101894.34;216029;1274;139832;-74
2022/02/28 16:16:02;;;;;;;31.10;13.80;;;;;;;1.66;54.74;101899.34;215817;1274;140541;-74
2022/02/28 16:21:06;;;;;;;25.20;11.70;;;;;;;1.48;55.52;101897.98;215808;1274;141432;-75
2022/02/28 16:26:11;;;;;;;18.40;7.50;;;;;;;1.25;55.65;101901.75;215094;1274;141577;-75
2022/02/28 16:31:16;;;;;;;15.00;6.60;;;;;;;1.03;56.52;101901.79;215520;1274;142280;-70
2022/02/28 16:36:24;;;;;;;10.90;6.30;;;;;;;0.80;56.79;101905.98;214784;1274;140338;-69
2022/02/28 16:41:28;;;;;;;8.80;5.10;;;;;;;0.59;57.12;101903.44;213686;1274;144226;-69
2022/02/28 16:46:33;;;;;;;8.20;4.10;;;;;;;0.36;57.18;101906.78;213709;1274;140542;-73
2022/02/28 16:51:38;;;;;;;6.70;2.90;;;;;;;0.04;57.91;101910.89;213719;1274;140854;-70
2022/02/28 16:56:42;;;;;;;8.40;3.90;;;;;;;-0.22;58.59;101910.71;213647;1274;160011;-70
2022/02/28 17:01:46;;;;;;;7.90;3.90;;;;;;;-0.42;58.87;101913.40;215344;1274;139715;-73
2022/02/28 17:06:52;;;;;;;8.50;4.40;;;;;;;-0.59;59.49;101914.33;214734;1274;140332;-71
2022/02/28 17:11:57;;;;;;;10.90;5.90;;;;;;;-0.73;59.72;101911.27;213954;1274;140490;-73
2022/02/28 17:17:01;;;;;;;13.80;5.10;;;;;;;-0.86;60.03;101918.70;214557;1274;140386;-76
2022/02/28 17:22:06;;;;;;;8.60;5.30;;;;;;;-1.00;60.49;101925.43;212988;1274;139656;-69
2022/02/28 17:27:11;;;;;;;17.40;6.70;;;;;;;-1.16;60.83;101925.50;213118;1274;140173;-72
2022/02/28 17:32:16;;;;;;;10.80;7.00;;;;;;;-1.32;61.25;101925.01;214056;1274;142682;-73
2022/02/28 17:37:20;;;;;;;21.10;11.20;;;;;;;-1.46;61.63;101925.58;214805;1274;140260;-70
2022/02/28 17:42:25;;;;;;;26.20;12.70;;;;;;;-1.52;61.91;101925.15;214024;1274;142378;-73
2022/02/28 17:47:30;;;;;;;19.30;9.20;;;;;;;-1.59;61.67;101927.77;214458;1274;142059;-72
2022/02/28 17:52:35;;;;;;;16.30;9.30;;;;;;;-1.73;62.01;101927.97;214570;1274;141054;-72
2022/02/28 17:57:41;;;;;;;14.80;7.30;;;;;;;-1.85;62.20;101931.35;214738;1274;141925;-73
2022/02/28 18:02:58;;;;;;;11.80;6.30;;;;;;;-1.95;62.53;101934.47;214938;1274;141978;-70
2022/02/28 18:08:05;;;;;;;17.50;8.10;;;;;;;-2.02;62.93;101945.41;214889;1274;140861;-71
2022/02/28 18:13:09;;;;;;;18.40;9.10;;;;;;;-2.04;62.98;101946.89;215541;1273;141250;-73
2022/02/28 18:18:14;;;;;;;19.70;7.70;;;;;;;-2.12;63.04;101948.79;215641;1274;140533;-72
2022/02/28 18:23:21;;;;;;;13.30;7.00;;;;;;;-2.21;63.32;101951.86;215655;1274;141016;-76
2022/02/28 18:28:26;;;;;;;11.70;6.10;;;;;;;-2.26;63.72;101952.67;215866;1273;140757;-76
2022/02/28 18:33:34;;;;;;;25.30;10.40;;;;;;;-2.30;64.11;101949.63;215650;1274;140233;-75
2022/02/28 18:38:38;;;;;;;28.30;14.10;;;;;;;-2.34;64.40;101947.98;214614;1274;141482;-70
2022/02/28 18:43:47;;;;;;;31.20;15.20;;;;;;;-2.31;64.48;101953.19;213775;1274;141176;-73
2022/02/28 18:48:52;;;;;;;27.70;14.70;;;;;;;-2.26;65.01;101954.83;214610;1274;141412;-76
2022/02/28 18:53:56;;;;;;;38.50;15.60;;;;;;;-2.29;64.70;101949.44;214616;1274;140857;-70
2022/02/28 18:59:01;;;;;;;45.00;20.60;;;;;;;-2.43;64.99;101950.82;212784;1274;140076;-71
2022/02/28 19:04:06;;;;;;;54.70;21.50;;;;;;;-2.49;65.57;101959.23;213758;1274;140603;-73
2022/02/28 19:09:15;;;;;;;57.50;22.90;;;;;;;-2.51;65.86;101956.18;213683;1274;140118;-71
2022/02/28 19:14:20;;;;;;;;;;;;;;;-2.56;66.14;101958.77;214315;1274;140626;-73
2022/02/28 19:19:34;;;;;;;43.10;19.30;;;;;;;-2.62;66.32;101958.44;214241;1274;126908;-71
2022/02/28 19:24:41;;;;;;;49.30;20.50;;;;;;;-2.66;66.81;101963.76;213363;1274;142286;-71
2022/02/28 19:29:48;;;;;;;43.40;18.70;;;;;;;-2.77;66.80;101956.10;214122;1274;142082;-73
2022/02/28 19:34:54;;;;;;;48.10;23.90;;;;;;;-2.84;66.79;101957.56;214471;1274;141589;-73
2022/02/28 19:39:59;;;;;;;42.00;17.60;;;;;;;-2.78;67.42;101961.75;214040;1274;140884;-71
2022/02/28 19:45:04;;;;;;;45.90;20.30;;;;;;;-2.77;67.58;101961.34;213535;1274;141093;-73
2022/02/28 19:50:09;;;;;;;33.90;18.80;;;;;;;-2.86;67.53;101959.42;214218;1274;140059;-74
2022/02/28 19:55:14;;;;;;;32.30;14.80;;;;;;;-3.02;67.62;101959.92;214625;1274;143571;-72
2022/02/28 20:00:19;;;;;;;30.10;16.00;;;;;;;-3.18;67.92;101963.63;215348;1274;140075;-73
2022/02/28 20:05:23;;;;;;;46.00;20.10;;;;;;;-3.27;67.69;101964.19;213468;1274;141915;-71
2022/02/28 20:10:29;;;;;;;48.20;25.50;;;;;;;-3.32;67.68;101962.71;215505;1274;140457;-73
2022/02/28 20:15:33;;;;;;;45.20;22.60;;;;;;;-3.33;67.92;101964.52;215974;1274;141704;-74
2022/02/28 20:20:38;;;;;;;44.40;21.90;;;;;;;-3.35;67.98;101965.35;215837;1274;151773;-73
2022/02/28 20:25:43;;;;;;;35.00;20.90;;;;;;;-3.35;68.44;101966.96;216022;1274;141882;-74
2022/02/28 20:30:50;;;;;;;33.30;17.90;;;;;;;-3.29;68.91;101967.43;215975;1274;142441;-73
2022/02/28 20:35:54;;;;;;;34.20;18.90;;;;;;;-3.24;68.72;101966.98;215785;1274;141011;-75
2022/02/28 20:40:58;;;;;;;37.50;20.60;;;;;;;-3.27;68.58;101972.70;215554;1273;140973;-73
2022/02/28 20:46:05;;;;;;;42.00;19.90;;;;;;;-3.36;68.59;101964.52;214679;1274;142334;-72
2022/02/28 20:51:16;;;;;;;38.80;19.00;;;;;;;-3.47;68.62;101965.04;214613;1274;141491;-71
2022/02/28 20:56:25;;;;;;;33.10;18.30;;;;;;;-3.57;68.90;101967.16;213118;1274;141110;-70
2022/02/28 21:01:30;;;;;;;29.00;15.60;;;;;;;-3.71;68.98;101972.01;214853;1274;142068;-72
2022/02/28 21:06:34;;;;;;;38.60;18.30;;;;;;;-3.84;69.57;101974.63;214185;1272;141916;-72
2022/02/28 21:11:40;;;;;;;23.20;15.20;;;;;;;-3.87;69.84;101968.71;213582;1274;140972;-74
2022/02/28 21:16:44;;;;;;;31.30;16.50;;;;;;;-3.88;70.18;101967.94;213567;1274;140578;-73
2022/02/28 21:21:48;;;;;;;42.90;20.00;;;;;;;-3.87;70.17;101958.51;213577;1274;140868;-74
2022/02/28 21:26:55;;;;;;;34.60;17.70;;;;;;;-3.94;70.40;101960.30;213535;1274;141823;-74
2022/02/28 21:32:00;;;;;;;;;;;;;;;-3.96;70.58;101961.10;213470;1274;141426;-67
2022/02/28 21:37:04;;;;;;;24.20;16.80;;;;;;;-3.95;71.10;101964.33;214811;1274;126851;-71
2022/02/28 21:42:12;;;;;;;38.80;18.00;;;;;;;-3.93;71.21;101968.89;214941;1274;141174;-71
2022/02/28 21:47:16;;;;;;;36.00;16.80;;;;;;;-3.92;71.08;101966.23;213252;1276;140768;-72
2022/02/28 21:52:21;;;;;;;45.30;19.40;;;;;;;-3.97;70.91;101966.55;214430;1274;141255;-71
2022/02/28 21:57:41;;;;;;;;;;;;;;;-4.01;71.20;101969.02;214649;1274;141999;-72
2022/02/28 22:02:46;;;;;;;52.00;27.30;;;;;;;-4.02;71.29;101969.45;215033;1276;137325;-71
2022/02/28 22:07:51;;;;;;;65.40;30.20;;;;;;;-4.04;71.18;101974.79;215244;1274;140806;-72
2022/02/28 22:12:55;;;;;;;60.20;28.00;;;;;;;-4.08;71.32;101972.20;214595;1274;140894;-74
2022/02/28 22:18:02;;;;;;;56.40;21.10;;;;;;;-4.11;71.37;101977.21;214539;1275;140352;-74
2022/02/28 22:23:07;;;;;;;39.20;18.30;;;;;;;-4.20;71.41;101966.63;215508;1274;141253;-75
2022/02/28 22:28:12;;;;;;;40.60;20.60;;;;;;;-4.32;71.53;101967.14;213361;1274;142776;-70
2022/02/28 22:33:17;;;;;;;54.70;23.40;;;;;;;-4.34;71.70;101968.63;215452;1274;142382;-71
2022/02/28 22:38:22;;;;;;;54.50;25.20;;;;;;;-4.33;71.77;101977.58;215713;1274;141059;-77
2022/02/28 22:43:26;;;;;;;44.90;21.50;;;;;;;-4.37;71.88;101978.85;215819;1274;140929;-75
2022/02/28 22:48:30;;;;;;;48.70;23.90;;;;;;;-4.40;71.89;101979.20;215635;1274;141682;-75
2022/02/28 22:53:39;;;;;;;53.70;25.00;;;;;;;-4.38;71.95;101978.77;214856;1274;141007;-73
2022/02/28 22:58:43;;;;;;;57.50;27.60;;;;;;;-4.36;72.08;101973.41;215848;1274;140934;-73
2022/02/28 23:19:55;;;;;;;55.20;24.50;;;;;;;-4.33;72.55;101970.81;214037;1274;142235;-70